Time;durP1;ratioP1;P1;durP2;ratioP2;P2;SDS_P1;SDS_P2;PMS_P1;PMS_P2;Temp;Humidity;BMP_temperature;BMP_pressure;BME280_temperature;BME280_humidity;BME280_pressure;Samples;Min_cycle;Max_cycle;Signal;HPM_P1;HPM_P2
2023/06/05 00:00:28;;;;;;;;;;;13.60;99.90;;;;;;5074193;28;19920;-75
2023/06/05 00:02:53;;;;;;;;;;;13.60;99.90;;;;;;5099355;28;19927;-75
2023/06/05 00:05:19;;;;;;;;;;;13.70;99.90;;;;;;5083050;28;19920;-75
2023/06/05 00:07:45;;;;;;;;;;;13.70;99.90;;;;;;5089671;28;19920;-75
2023/06/05 00:10:11;;;;;;;;;;;13.70;99.90;;;;;;5101854;28;19919;-75
2023/06/05 00:12:36;;;;;;;;;;;13.70;99.90;;;;;;5099167;28;20297;-75
2023/06/05 00:15:02;;;;;;;;;;;13.60;99.90;;;;;;5102819;28;19920;-75
2023/06/05 00:17:30;;;;;;;;;;;13.60;99.90;;;;;;5107205;28;19920;-75
2023/06/05 00:19:58;;;;;;;;;;;13.60;99.90;;;;;;5104955;28;19924;-75
2023/06/05 00:22:25;;;;;;;;;;;13.60;99.90;;;;;;5107675;28;19923;-75
2023/06/05 00:24:50;;;;;;;;;;;13.60;99.90;;;;;;5103458;28;19920;-75
2023/06/05 00:27:16;;;;;;;;;;;13.60;99.90;;;;;;5107492;28;19973;-75
2023/06/05 00:29:41;;;;;;;;;;;13.60;99.90;;;;;;5104544;28;19923;-75
2023/06/05 00:32:07;;;;;;;;;;;13.50;99.90;;;;;;5107326;28;20701;-75
2023/06/05 00:34:32;;;;;;;;;;;13.50;99.90;;;;;;5107140;28;19920;-75
2023/06/05 00:36:58;;;;;;;;;;;13.50;99.90;;;;;;5111204;28;19968;-75
2023/06/05 00:39:24;;;;;;;;;;;13.50;99.90;;;;;;5088604;28;19928;-75
2023/06/05 00:41:49;;;;;;;;;;;13.50;99.90;;;;;;5109715;28;19920;-75
2023/06/05 00:44:17;;;;;;;;;;;13.50;99.90;;;;;;5105763;28;20003;-75
2023/06/05 00:46:43;;;;;;;;;;;13.50;99.90;;;;;;5084844;28;19920;-75
2023/06/05 00:49:09;;;;;;;;;;;13.50;99.90;;;;;;5095585;28;19935;-75
2023/06/05 00:51:35;;;;;;;;;;;13.50;99.90;;;;;;5084513;28;19920;-75
2023/06/05 00:54:01;;;;;;;;;;;13.50;99.90;;;;;;5093135;28;19920;-75
2023/06/05 00:56:27;;;;;;;;;;;13.50;99.90;;;;;;5096147;28;20358;-75
2023/06/05 00:58:52;;;;;;;;;;;13.50;99.90;;;;;;5109990;28;19974;-75
2023/06/05 01:01:20;;;;;;;;;;;13.50;99.90;;;;;;5097095;28;19930;-75
2023/06/05 01:03:47;;;;;;;;;;;13.50;99.90;;;;;;5109669;28;20396;-75
2023/06/05 01:06:13;;;;;;;;;;;13.50;99.90;;;;;;5109809;28;19945;-75
2023/06/05 01:08:39;;;;;;;;;;;13.40;99.90;;;;;;5099352;28;20014;-75
2023/06/05 01:11:16;;;;;;;;;;;13.40;99.90;;;;;;5106287;28;19930;-75
2023/06/05 01:13:46;;;;;;;;;;;13.40;99.90;;;;;;5111336;28;19920;-75
2023/06/05 01:16:12;;;;;;;;;;;13.40;99.90;;;;;;5103111;28;19920;-75
2023/06/05 01:18:45;;;;;;;;;;;13.40;99.90;;;;;;5090950;28;19927;-75
2023/06/05 01:21:13;;;;;;;;;;;13.40;99.90;;;;;;5108310;28;20392;-75
2023/06/05 01:23:43;;;;;;;;;;;13.40;99.90;;;;;;5096598;28;19920;-75
2023/06/05 01:26:12;;;;;;;;;;;13.30;99.90;;;;;;5090882;28;19943;-75
2023/06/05 01:28:38;;;;;;;;;;;13.30;99.90;;;;;;5098244;28;19927;-75
2023/06/05 01:31:13;;;;;;;;;;;13.30;99.90;;;;;;5108129;28;20444;-75
2023/06/05 01:34:01;;;;;;;;;;;13.30;99.90;;;;;;5100132;28;20305;-75
2023/06/05 01:36:28;;;;;;;;;;;13.30;99.90;;;;;;5096004;28;19923;-75
2023/06/05 01:38:54;;;;;;;;;;;13.30;99.90;;;;;;5110098;28;19920;-75
2023/06/05 01:41:20;;;;;;;;;;;13.30;99.90;;;;;;5096969;28;19926;-75
2023/06/05 01:43:47;;;;;;;;;;;13.30;99.90;;;;;;5110189;28;19963;-75
2023/06/05 01:46:15;;;;;;;;;;;13.30;99.90;;;;;;5108394;28;19924;-75
2023/06/05 01:48:40;;;;;;;;;;;13.20;99.90;;;;;;5108661;28;19989;-75
2023/06/05 01:51:06;;;;;;;;;;;13.30;99.90;;;;;;5090252;28;20394;-75
2023/06/05 01:53:31;;;;;;;;;;;13.20;99.90;;;;;;5080362;28;19919;-75
2023/06/05 01:55:57;;;;;;;;;;;13.20;99.90;;;;;;5106264;28;19931;-75
2023/06/05 01:58:23;;;;;;;;;;;13.20;99.90;;;;;;5109696;28;19930;-75
2023/06/05 02:00:48;;;;;;;;;;;13.10;99.90;;;;;;5090244;28;19920;-75
2023/06/05 02:03:15;;;;;;;;;;;13.10;99.90;;;;;;5089354;28;19926;-75
2023/06/05 02:05:41;;;;;;;;;;;13.00;99.90;;;;;;5107300;28;19920;-75
2023/06/05 02:08:09;;;;;;;;;;;13.00;99.90;;;;;;5108789;28;19920;-75
2023/06/05 02:10:35;;;;;;;;;;;13.00;99.90;;;;;;5107196;28;19926;-75
2023/06/05 02:13:00;;;;;;;;;;;13.00;99.90;;;;;;5109712;27;19942;-75
2023/06/05 02:15:26;;;;;;;;;;;13.00;99.90;;;;;;5103036;28;20019;-75
2023/06/05 02:17:53;;;;;;;;;;;13.00;99.90;;;;;;5090437;28;19926;-75
2023/06/05 02:20:23;;;;;;;;;;;13.00;99.90;;;;;;5102482;28;19923;-75
2023/06/05 02:22:51;;;;;;;;;;;13.00;99.90;;;;;;5090976;28;19920;-75
2023/06/05 02:25:26;;;;;;;;;;;13.10;99.90;;;;;;5101163;28;19924;-75
2023/06/05 02:27:52;;;;;;;;;;;13.10;99.90;;;;;;5102254;28;19931;-75
2023/06/05 02:30:18;;;;;;;;;;;13.10;99.90;;;;;;5100586;28;19920;-75
2023/06/05 02:32:43;;;;;;;;;;;13.10;99.90;;;;;;5101531;28;19920;-75
2023/06/05 02:35:10;;;;;;;;;;;13.10;99.90;;;;;;5105215;28;19920;-75
2023/06/05 02:37:37;;;;;;;;;;;13.10;99.90;;;;;;5094761;28;19931;-74
2023/06/05 02:40:07;;;;;;;;;;;13.10;99.90;;;;;;5106456;28;19924;-75
2023/06/05 02:42:33;;;;;;;;;;;13.10;99.90;;;;;;5104549;28;19927;-75
2023/06/05 02:44:59;;;;;;;;;;;13.10;99.90;;;;;;5107352;28;19926;-75
2023/06/05 02:47:25;;;;;;;;;;;13.10;99.90;;;;;;5104882;28;19919;-75
2023/06/05 02:49:50;;;;;;;;;;;13.10;99.90;;;;;;5106385;28;19920;-76
2023/06/05 02:52:16;;;;;;;;;;;13.10;99.90;;;;;;5104664;28;19920;-75
2023/06/05 02:54:41;;;;;;;;;;;13.10;99.90;;;;;;5086583;28;19920;-75
2023/06/05 02:57:07;;;;;;;;;;;13.10;99.90;;;;;;5103386;28;19965;-75
2023/06/05 02:59:39;;;;;;;;;;;13.10;99.90;;;;;;5089110;28;20018;-75
2023/06/05 03:02:08;;;;;;;;;;;13.10;99.90;;;;;;5103149;28;19955;-75
2023/06/05 03:04:33;;;;;;;;;;;13.10;99.90;;;;;;5101080;28;20003;-75
2023/06/05 03:07:03;;;;;;;;;;;13.10;99.90;;;;;;5103827;28;20355;-75
2023/06/05 03:09:30;;;;;;;;;;;13.10;99.90;;;;;;5099492;28;19920;-75
2023/06/05 03:11:56;;;;;;;;;;;13.10;99.90;;;;;;5090788;28;20382;-75
2023/06/05 03:14:21;;;;;;;;;;;13.10;99.90;;;;;;5109291;28;19949;-75
2023/06/05 03:16:47;;;;;;;;;;;13.00;99.90;;;;;;5107334;28;19920;-75
2023/06/05 03:19:13;;;;;;;;;;;13.00;99.90;;;;;;5108129;28;19930;-75
2023/06/05 03:21:39;;;;;;;;;;;13.00;99.90;;;;;;5105146;28;19920;-75
2023/06/05 03:24:06;;;;;;;;;;;13.00;99.90;;;;;;5096510;28;19958;-75
2023/06/05 03:26:32;;;;;;;;;;;13.10;99.90;;;;;;5105841;28;19920;-75
2023/06/05 03:28:58;;;;;;;;;;;13.00;99.90;;;;;;5106935;28;20024;-75
2023/06/05 03:31:23;;;;;;;;;;;13.00;99.90;;;;;;5105965;28;20031;-75
2023/06/05 03:33:49;;;;;;;;;;;13.10;99.90;;;;;;5090051;28;20282;-75
2023/06/05 03:36:18;;;;;;;;;;;13.10;99.90;;;;;;5106483;28;19920;-75
2023/06/05 03:38:44;;;;;;;;;;;13.10;99.90;;;;;;5108402;28;19924;-75
2023/06/05 03:41:10;;;;;;;;;;;13.10;99.90;;;;;;5106100;28;19927;-75
2023/06/05 03:43:36;;;;;;;;;;;13.10;99.90;;;;;;5108095;28;20002;-75
2023/06/05 03:46:02;;;;;;;;;;;13.10;99.90;;;;;;5104408;28;20314;-75
2023/06/05 03:48:27;;;;;;;;;;;13.10;99.90;;;;;;5106272;28;19920;-75
2023/06/05 03:50:53;;;;;;;;;;;13.20;99.90;;;;;;5102752;28;19931;-75
2023/06/05 03:53:19;;;;;;;;;;;13.20;99.90;;;;;;5106852;28;19976;-75
2023/06/05 03:55:45;;;;;;;;;;;13.20;99.90;;;;;;5103908;28;19926;-75
2023/06/05 03:58:15;;;;;;;;;;;13.20;99.90;;;;;;5106728;28;19920;-75
2023/06/05 04:00:42;;;;;;;;;;;13.20;99.90;;;;;;5075996;28;19935;-75
2023/06/05 04:03:11;;;;;;;;;;;13.20;99.90;;;;;;5090242;28;19927;-75
2023/06/05 04:05:37;;;;;;;;;;;13.20;99.90;;;;;;5105586;28;19926;-75
2023/06/05 04:08:03;;;;;;;;;;;13.20;99.90;;;;;;5093749;28;19923;-75
2023/06/05 04:10:29;;;;;;;;;;;13.20;99.90;;;;;;5109294;28;19926;-75
2023/06/05 04:12:55;;;;;;;;;;;13.20;99.90;;;;;;5102311;28;20006;-75
2023/06/05 04:15:21;;;;;;;;;;;13.20;99.90;;;;;;5074798;28;19998;-75
2023/06/05 04:17:46;;;;;;;;;;;13.20;99.90;;;;;;5102875;28;20024;-75
2023/06/05 04:20:15;;;;;;;;;;;13.20;99.90;;;;;;5108627;28;19957;-75
2023/06/05 04:22:41;;;;;;;;;;;13.20;99.90;;;;;;5093414;28;19920;-75
2023/06/05 04:25:08;;;;;;;;;;;13.20;99.90;;;;;;5108601;28;19934;-75
2023/06/05 04:27:33;;;;;;;;;;;13.30;99.90;;;;;;5110825;28;19947;-75
2023/06/05 04:29:59;;;;;;;;;;;13.30;99.90;;;;;;5108466;28;20366;-75
2023/06/05 04:32:25;;;;;;;;;;;13.30;99.90;;;;;;5100226;28;19920;-75
2023/06/05 04:34:52;;;;;;;;;;;13.40;99.90;;;;;;5106675;28;19919;-75
2023/06/05 04:37:17;;;;;;;;;;;13.30;99.90;;;;;;5111282;28;19973;-75
2023/06/05 04:39:43;;;;;;;;;;;13.40;99.90;;;;;;5105694;28;19924;-75
2023/06/05 04:42:09;;;;;;;;;;;13.40;99.90;;;;;;5103481;28;19919;-75
2023/06/05 04:44:35;;;;;;;;;;;13.40;99.90;;;;;;5105321;28;20309;-75
2023/06/05 04:47:00;;;;;;;;;;;13.40;99.90;;;;;;5101835;28;20006;-76
2023/06/05 04:49:26;;;;;;;;;;;13.40;99.90;;;;;;5107994;28;20006;-75
2023/06/05 04:51:53;;;;;;;;;;;13.40;99.90;;;;;;5093138;28;19919;-75
2023/06/05 04:54:19;;;;;;;;;;;13.40;99.90;;;;;;5107041;28;19920;-75
2023/06/05 04:56:45;;;;;;;;;;;13.50;99.90;;;;;;5110014;28;20357;-75
2023/06/05 04:59:11;;;;;;;;;;;13.50;99.90;;;;;;5104819;28;19920;-75
2023/06/05 05:01:36;;;;;;;;;;;13.60;99.90;;;;;;5103461;28;19927;-75
2023/06/05 05:04:02;;;;;;;;;;;13.60;99.90;;;;;;5091963;28;19919;-75
2023/06/05 05:06:28;;;;;;;;;;;13.60;99.90;;;;;;5110117;28;20336;-75
2023/06/05 05:08:53;;;;;;;;;;;13.60;99.90;;;;;;5106043;28;19920;-75
2023/06/05 05:11:19;;;;;;;;;;;13.70;99.90;;;;;;5101287;28;19930;-75
2023/06/05 05:13:45;;;;;;;;;;;13.70;99.90;;;;;;5105090;27;19919;-75
2023/06/05 05:16:10;;;;;;;;;;;13.60;99.90;;;;;;5083351;28;20394;-74
2023/06/05 05:18:40;;;;;;;;;;;13.70;99.90;;;;;;5105192;28;19927;-73
2023/06/05 05:21:06;;;;;;;;;;;13.70;99.90;;;;;;5102279;27;20409;-75
2023/06/05 05:23:32;;;;;;;;;;;13.70;99.90;;;;;;5092328;28;19919;-74
2023/06/05 05:25:57;;;;;;;;;;;13.60;99.90;;;;;;5102478;28;20330;-75
2023/06/05 05:28:23;;;;;;;;;;;13.70;99.90;;;;;;5107010;28;19928;-75
2023/06/05 05:30:48;;;;;;;;;;;13.80;99.90;;;;;;5108360;28;20007;-75
2023/06/05 05:33:14;;;;;;;;;;;13.80;99.90;;;;;;5104746;28;19927;-75
2023/06/05 05:35:40;;;;;;;;;;;13.90;99.90;;;;;;5109375;28;19926;-75
2023/06/05 05:38:06;;;;;;;;;;;13.90;99.90;;;;;;5103924;28;19926;-75
2023/06/05 05:40:31;;;;;;;;;;;14.00;99.90;;;;;;5101685;28;20010;-75
2023/06/05 05:42:57;;;;;;;;;;;14.00;99.90;;;;;;5107169;28;19924;-75
2023/06/05 05:45:22;;;;;;;;;;;14.00;99.90;;;;;;5109651;28;19976;-75
2023/06/05 05:47:48;;;;;;;;;;;14.10;99.90;;;;;;5104978;28;19920;-75
2023/06/05 05:50:13;;;;;;;;;;;14.10;99.90;;;;;;5107704;28;20266;-75
2023/06/05 05:52:39;;;;;;;;;;;14.20;99.90;;;;;;5105203;28;19920;-75
2023/06/05 05:55:06;;;;;;;;;;;14.20;99.90;;;;;;5108434;27;20429;-75
2023/06/05 05:57:32;;;;;;;;;;;14.30;99.90;;;;;;5104873;28;19946;-75
2023/06/05 05:59:57;;;;;;;;;;;14.40;99.90;;;;;;5099552;28;20390;-74
2023/06/05 06:02:23;;;;;;;;;;;14.50;99.90;;;;;;5095333;28;19924;-75
2023/06/05 06:04:49;;;;;;;;;;;14.50;99.90;;;;;;5111123;28;19945;-75
2023/06/05 06:07:15;;;;;;;;;;;14.50;99.90;;;;;;5109324;28;19927;-75
2023/06/05 06:09:40;;;;;;;;;;;14.60;99.90;;;;;;5092244;28;19919;-75
2023/06/05 06:12:07;;;;;;;;;;;14.60;99.90;;;;;;5108878;28;19973;-75
2023/06/05 06:14:33;;;;;;;;;;;14.60;99.90;;;;;;5098805;28;20311;-75
2023/06/05 06:16:59;;;;;;;;;;;14.60;99.90;;;;;;5107989;28;19920;-75
2023/06/05 06:19:25;;;;;;;;;;;14.70;99.90;;;;;;5110519;28;19942;-75
2023/06/05 06:21:51;;;;;;;;;;;14.70;99.90;;;;;;5109554;28;19920;-75
2023/06/05 06:24:19;;;;;;;;;;;14.70;99.90;;;;;;5110472;28;19919;-75
2023/06/05 06:26:49;;;;;;;;;;;14.80;99.90;;;;;;5090493;28;20004;-75
2023/06/05 06:29:17;;;;;;;;;;;14.80;99.90;;;;;;5109485;28;19930;-75
2023/06/05 06:31:43;;;;;;;;;;;14.80;99.90;;;;;;5106883;28;19963;-75
2023/06/05 06:34:10;;;;;;;;;;;14.90;99.90;;;;;;5098072;28;20012;-75
2023/06/05 06:36:40;;;;;;;;;;;14.90;99.90;;;;;;5104005;28;19928;-75
2023/06/05 06:39:07;;;;;;;;;;;14.90;99.90;;;;;;5106925;28;19919;-76
2023/06/05 06:41:34;;;;;;;;;;;14.90;99.90;;;;;;5094014;28;19931;-75
2023/06/05 06:43:59;;;;;;;;;;;15.10;99.90;;;;;;5106376;28;20410;-75
2023/06/05 06:46:25;;;;;;;;;;;15.10;99.90;;;;;;5099317;28;19920;-75
2023/06/05 06:48:51;;;;;;;;;;;15.10;99.90;;;;;;5100837;28;19934;-75
2023/06/05 06:51:17;;;;;;;;;;;15.10;99.90;;;;;;5100512;28;19926;-75
2023/06/05 06:53:43;;;;;;;;;;;15.10;99.90;;;;;;5099627;28;19970;-75
2023/06/05 06:56:08;;;;;;;;;;;15.10;99.90;;;;;;5105312;28;20405;-75
2023/06/05 06:58:34;;;;;;;;;;;15.00;99.90;;;;;;5095170;28;19977;-76
2023/06/05 07:00:59;;;;;;;;;;;14.90;99.90;;;;;;5095565;28;19973;-75
2023/06/05 07:03:25;;;;;;;;;;;14.90;99.90;;;;;;5109390;28;20382;-75
2023/06/05 07:05:51;;;;;;;;;;;14.90;99.90;;;;;;5107655;28;19924;-75
2023/06/05 07:08:16;;;;;;;;;;;14.90;99.90;;;;;;5108883;28;19999;-75
2023/06/05 07:10:42;;;;;;;;;;;14.90;99.90;;;;;;5102071;28;19920;-75
2023/06/05 07:13:07;;;;;;;;;;;14.90;99.90;;;;;;5102148;28;19969;-75
2023/06/05 07:15:33;;;;;;;;;;;14.90;99.90;;;;;;5106558;28;19920;-75
2023/06/05 07:17:58;;;;;;;;;;;14.90;99.90;;;;;;5108408;28;20262;-75
2023/06/05 07:20:24;;;;;;;;;;;15.00;99.90;;;;;;5104752;28;19963;-75
2023/06/05 07:22:49;;;;;;;;;;;15.00;99.90;;;;;;5108616;28;20002;-75
2023/06/05 07:25:16;;;;;;;;;;;15.00;99.90;;;;;;5100963;28;19920;-75
2023/06/05 07:27:45;;;;;;;;;;;15.00;99.90;;;;;;5100475;28;19968;-75
2023/06/05 07:30:12;;;;;;;;;;;15.00;99.90;;;;;;5102965;28;19972;-75
2023/06/05 07:32:37;;;;;;;;;;;15.00;99.90;;;;;;5105536;28;20042;-75
2023/06/05 07:35:03;;;;;;;;;;;15.10;99.90;;;;;;5105283;28;20002;-75
2023/06/05 07:37:29;;;;;;;;;;;15.10;99.90;;;;;;5104917;28;19927;-75
2023/06/05 07:39:54;;;;;;;;;;;15.10;99.90;;;;;;5100430;28;20023;-75
2023/06/05 07:42:20;;;;;;;;;;;15.20;99.90;;;;;;5100233;28;19926;-75
2023/06/05 07:44:45;;;;;;;;;;;15.20;99.90;;;;;;5104993;28;19958;-75
2023/06/05 07:47:11;;;;;;;;;;;15.30;99.90;;;;;;5106969;28;20002;-75
2023/06/05 07:49:36;;;;;;;;;;;15.40;99.90;;;;;;5092434;28;19920;-75
2023/06/05 07:52:02;;;;;;;;;;;15.40;99.90;;;;;;5106753;28;20627;-75
2023/06/05 07:54:28;;;;;;;;;;;15.50;99.90;;;;;;5104246;28;19927;-75
2023/06/05 07:56:54;;;;;;;;;;;15.60;99.90;;;;;;5094387;28;20382;-75
2023/06/05 07:59:24;;;;;;;;;;;15.60;99.90;;;;;;5081714;28;19931;-76
2023/06/05 08:01:50;;;;;;;;;;;15.60;99.90;;;;;;5100246;28;19992;-75
2023/06/05 08:04:15;;;;;;;;;;;15.60;99.90;;;;;;5107651;28;20406;-75
2023/06/05 08:06:41;;;;;;;;;;;15.60;99.90;;;;;;5106010;28;20026;-75
2023/06/05 08:09:10;;;;;;;;;;;15.70;99.90;;;;;;5105763;28;20010;-75
2023/06/05 08:11:37;;;;;;;;;;;15.80;99.90;;;;;;5105868;28;19943;-75
2023/06/05 08:14:03;;;;;;;;;;;15.90;99.90;;;;;;5105704;28;20113;-75
2023/06/05 08:16:29;;;;;;;;;;;15.90;99.90;;;;;;5106151;28;20050;-75
2023/06/05 08:18:55;;;;;;;;;;;16.00;99.90;;;;;;5100375;28;19923;-75
2023/06/05 08:21:20;;;;;;;;;;;16.00;99.90;;;;;;5098856;28;19924;-75
2023/06/05 08:23:46;;;;;;;;;;;16.10;99.90;;;;;;5106242;28;19920;-75
2023/06/05 08:26:11;;;;;;;;;;;16.10;99.90;;;;;;5106725;28;19936;-75
2023/06/05 08:28:38;;;;;;;;;;;16.10;99.90;;;;;;5106021;28;19924;-75
2023/06/05 08:31:05;;;;;;;;;;;16.10;99.90;;;;;;5093882;28;20007;-75
2023/06/05 08:33:32;;;;;;;;;;;16.10;99.90;;;;;;5092886;28;19919;-75
2023/06/05 08:35:57;;;;;;;;;;;16.10;99.90;;;;;;5105171;28;19926;-75
2023/06/05 08:38:23;;;;;;;;;;;16.10;99.90;;;;;;5103682;28;20297;-75
2023/06/05 08:40:51;;;;;;;;;;;16.10;99.90;;;;;;5103243;28;19930;-75
2023/06/05 08:43:16;;;;;;;;;;;16.20;99.90;;;;;;5104059;28;20348;-75
2023/06/05 08:45:42;;;;;;;;;;;16.20;99.90;;;;;;5104437;28;19919;-75
2023/06/05 08:48:09;;;;;;;;;;;16.20;99.90;;;;;;5104270;28;20505;-75
2023/06/05 08:50:37;;;;;;;;;;;16.20;99.90;;;;;;5103774;28;19919;-75
2023/06/05 08:53:02;;;;;;;;;;;16.30;99.90;;;;;;5099190;28;19974;-75
2023/06/05 08:55:28;;;;;;;;;;;16.40;99.90;;;;;;5102668;28;19920;-75
2023/06/05 08:57:54;;;;;;;;;;;16.50;99.90;;;;;;5092064;28;19920;-73
2023/06/05 09:00:21;;;;;;;;;;;16.50;99.90;;;;;;5091991;28;19947;-72
2023/06/05 09:02:47;;;;;;;;;;;16.60;99.90;;;;;;5109132;28;20377;-73
2023/06/05 09:05:13;;;;;;;;;;;16.60;99.90;;;;;;5108515;28;19920;-75
2023/06/05 09:07:39;;;;;;;;;;;16.70;99.90;;;;;;5096806;28;19967;-75
2023/06/05 09:10:06;;;;;;;;;;;16.80;99.90;;;;;;5096062;28;19924;-75
2023/06/05 09:12:32;;;;;;;;;;;16.80;99.90;;;;;;5096913;28;20341;-72
2023/06/05 09:14:57;;;;;;;;;;;16.90;99.90;;;;;;5107778;28;19981;-69
2023/06/05 09:17:23;;;;;;;;;;;16.90;99.90;;;;;;5098057;28;19927;-72
2023/06/05 09:19:50;;;;;;;;;;;17.00;99.90;;;;;;5107957;28;19969;-75
2023/06/05 09:22:16;;;;;;;;;;;17.10;99.90;;;;;;5109667;28;20010;-75
2023/06/05 09:24:42;;;;;;;;;;;17.20;99.90;;;;;;5089514;28;19919;-76
2023/06/05 09:27:09;;;;;;;;;;;17.20;99.90;;;;;;5107318;28;20358;-73
2023/06/05 09:29:36;;;;;;;;;;;17.30;99.90;;;;;;5095855;28;19963;-74
2023/06/05 09:32:02;;;;;;;;;;;17.50;99.90;;;;;;5098333;28;19972;-74
2023/06/05 09:34:29;;;;;;;;;;;17.70;99.90;;;;;;5095415;28;19923;-75
2023/06/05 09:36:57;;;;;;;;;;;17.90;99.90;;;;;;5098032;28;19998;-76
2023/06/05 09:39:25;;;;;;;;;;;18.20;99.90;;;;;;5106553;28;19923;-76
2023/06/05 09:41:51;;;;;;;;;;;18.40;99.90;;;;;;5109485;28;19930;-72
2023/06/05 09:44:17;;;;;;;;;;;18.50;99.90;;;;;;5106507;28;20010;-72
2023/06/05 09:46:55;;;;;;;;;;;18.70;99.90;;;;;;5109382;28;20010;-74
2023/06/05 09:49:20;;;;;;;;;;;18.90;99.90;;;;;;5106718;28;19946;-74
2023/06/05 09:51:47;;;;;;;;;;;19.10;99.90;;;;;;5099900;28;19920;-75
2023/06/05 09:54:13;;;;;;;;;;;19.20;99.90;;;;;;5102339;28;19931;-75
2023/06/05 09:56:46;;;;;;;;;;;19.30;99.90;;;;;;5108040;28;19919;-76
2023/06/05 09:59:13;;;;;;;;;;;19.40;99.90;;;;;;5102058;28;19965;-75
2023/06/05 10:01:40;;;;;;;;;;;19.50;99.90;;;;;;5102983;28;19920;-76
2023/06/05 10:04:07;;;;;;;;;;;19.60;99.90;;;;;;5102365;28;19927;-75
2023/06/05 10:06:33;;;;;;;;;;;19.70;99.90;;;;;;5102710;28;19928;-76
2023/06/05 10:09:00;;;;;;;;;;;19.80;99.90;;;;;;5107923;28;19926;-76
2023/06/05 10:11:26;;;;;;;1.98;0.77;;;19.90;99.90;;;;;;5109732;28;19920;-76
2023/06/05 10:13:53;;;;;;;1.50;0.77;;;20.10;99.90;;;;;;5105119;28;21281;-76
2023/06/05 10:16:20;;;;;;;1.50;0.70;;;20.20;99.90;;;;;;5095357;28;20409;-76
2023/06/05 10:18:49;;;;;;;1.75;0.90;;;20.40;99.90;;;;;;5102466;28;20392;-76
2023/06/05 10:21:16;;;;;;;1.70;0.80;;;20.50;99.90;;;;;;5105291;28;20894;-76
2023/06/05 10:23:47;;;;;;;;;;;20.60;99.90;;;;;;5105014;28;20097;-76
2023/06/05 10:26:21;;;;;;;;;;;20.70;99.90;;;;;;5076789;28;19923;-76
2023/06/05 10:29:07;;;;;;;;;;;20.70;99.90;;;;;;5107060;28;19919;-76
2023/06/05 10:31:46;;;;;;;;;;;20.80;99.90;;;;;;5078762;28;20015;-76
2023/06/05 10:34:12;;;;;;;;;;;20.90;99.80;;;;;;5105801;28;19986;-76
2023/06/05 10:36:41;;;;;;;;;;;20.90;99.40;;;;;;5093866;28;19951;-76
2023/06/05 10:39:10;;;;;;;;;;;20.90;99.80;;;;;;5105201;28;19920;-76
2023/06/05 10:41:36;;;;;;;;;;;21.00;99.30;;;;;;5104014;28;19920;-76
2023/06/05 10:44:01;;;;;;;;;;;21.00;98.90;;;;;;5105471;28;19926;-76
2023/06/05 10:46:30;;;;;;;;;;;21.10;98.80;;;;;;5104870;28;19920;-76
2023/06/05 10:49:19;;;;;;;;;;;21.00;98.30;;;;;;5104449;28;20354;-75
2023/06/05 10:51:45;;;;;;;;;;;21.10;98.00;;;;;;5089029;28;19919;-76
2023/06/05 10:54:16;;;;;;;;;;;21.20;98.30;;;;;;5100309;27;19920;-76
2023/06/05 10:56:51;;;;;;;;;;;21.20;98.10;;;;;;5105446;28;19919;-76
2023/06/05 10:59:17;;;;;;;;;;;21.30;97.60;;;;;;5097900;28;19950;-76
2023/06/05 11:01:43;;;;;;;2.10;0.70;;;21.40;98.20;;;;;;5101302;28;19994;-76
2023/06/05 11:04:09;;;;;;;1.35;0.55;;;21.50;98.00;;;;;;5105676;28;20130;-76
2023/06/05 11:06:37;;;;;;;;;;;21.70;97.70;;;;;;5095671;28;20076;-76
2023/06/05 11:09:10;;;;;;;3.15;0.70;;;21.80;97.00;;;;;;5105988;28;19929;-76
2023/06/05 11:11:59;;;;;;;2.78;0.60;;;21.80;96.80;;;;;;5106381;28;20493;-76
2023/06/05 11:14:48;;;;;;;1.70;0.87;;;21.60;96.60;;;;;;5069546;28;20428;-76
2023/06/05 11:17:33;;;;;;;2.00;0.80;;;21.70;96.60;;;;;;5102330;28;20408;-76
2023/06/05 11:20:00;;;;;;;1.43;0.70;;;21.80;96.10;;;;;;5094872;28;20951;-75
2023/06/05 11:22:27;;;;;;;1.77;0.90;;;21.80;95.10;;;;;;5096415;28;20408;-73
2023/06/05 11:25:26;;;;;;;2.30;1.10;;;21.80;95.60;;;;;;5090310;28;20943;-74
2023/06/05 11:27:53;;;;;;;2.30;0.70;;;21.90;94.60;;;;;;5047425;28;20920;-73
2023/06/05 11:30:20;;;;;;;1.80;0.70;;;21.90;95.20;;;;;;5103151;28;20417;-73
2023/06/05 11:32:47;;;;;;;2.17;0.60;;;21.90;95.20;;;;;;5102070;28;20825;-73
2023/06/05 11:35:14;;;;;;;1.83;0.90;;;22.00;95.50;;;;;;5101657;28;20519;-73
2023/06/05 11:37:40;;;;;;;2.42;0.70;;;22.40;95.50;;;;;;5097803;28;20135;-73
2023/06/05 11:40:10;;;;;;;1.38;0.52;;;22.50;93.90;;;;;;5097783;28;20643;-73
2023/06/05 11:42:40;;;;;;;1.55;0.80;;;22.50;93.80;;;;;;5088084;28;20402;-73
2023/06/05 11:45:13;;;;;;;1.52;0.80;;;22.50;94.60;;;;;;5086236;28;20466;-73
2023/06/05 11:47:39;;;;;;;1.98;1.00;;;22.70;93.90;;;;;;5080763;28;20926;-73
2023/06/05 11:50:11;;;;;;;;;;;22.70;93.20;;;;;;5082646;28;20036;-73
2023/06/05 11:52:37;;;;;;;;;;;22.70;92.70;;;;;;5087476;28;19962;-73
2023/06/05 11:55:14;;;;;;;;;;;22.80;92.60;;;;;;5092407;28;19967;-73
2023/06/05 11:57:44;;;;;;;;;;;22.80;92.20;;;;;;5086066;28;19920;-73
2023/06/05 12:00:13;;;;;;;;;;;22.90;92.40;;;;;;5084591;28;20366;-73
2023/06/05 12:02:41;;;;;;;;;;;23.00;92.10;;;;;;5082868;28;20014;-73
2023/06/05 12:05:09;;;;;;;;;;;23.00;91.90;;;;;;5074578;28;20449;-73
2023/06/05 12:07:39;;;;;;;;;;;23.20;92.10;;;;;;5095275;28;19927;-73
2023/06/05 12:10:06;;;;;;;;;;;23.40;91.30;;;;;;5073496;28;20557;-73
2023/06/05 12:12:33;;;;;;;;;;;23.30;90.50;;;;;;5091857;28;19927;-73
2023/06/05 12:15:18;;;;;;;;;;;23.30;90.40;;;;;;5090950;28;20018;-73
2023/06/05 12:17:50;;;;;;;;;;;23.30;90.30;;;;;;5081814;28;19998;-73
2023/06/05 12:20:17;;;;;;;;;;;23.20;90.40;;;;;;5091408;28;19920;-73
2023/06/05 12:22:43;;;;;;;;;;;23.10;90.20;;;;;;5090417;28;19920;-73
2023/06/05 12:25:18;;;;;;;;;;;23.00;89.90;;;;;;5073216;28;19919;-73
2023/06/05 12:27:45;;;;;;;;;;;23.00;89.30;;;;;;5091251;28;19975;-73
2023/06/05 12:30:11;;;;;;;;;;;22.90;89.50;;;;;;5093296;28;20285;-73
2023/06/05 12:32:38;;;;;;;;;;;22.90;90.00;;;;;;5092438;28;19974;-73
2023/06/05 12:35:04;;;;;;;;;;;22.90;89.40;;;;;;5094612;28;19920;-73
2023/06/05 12:37:31;;;;;;;;;;;23.10;90.00;;;;;;5093313;28;19920;-73
2023/06/05 12:39:58;;;;;;;;;;;23.10;88.80;;;;;;5094448;28;20014;-73
2023/06/05 12:42:24;;;;;;;;;;;23.10;88.70;;;;;;5101824;28;20420;-73
2023/06/05 12:44:50;;;;;;;;;;;23.10;88.10;;;;;;5092936;28;20310;-73
2023/06/05 12:47:16;;;;;;;;;;;23.10;88.50;;;;;;5093353;28;19920;-73
2023/06/05 12:49:42;;;;;;;;;;;23.20;87.90;;;;;;5093118;28;19939;-73
2023/06/05 12:52:08;;;;;;;;;;;23.20;87.10;;;;;;5093326;28;19924;-74
2023/06/05 12:54:35;;;;;;;;;;;23.20;87.30;;;;;;5093526;28;19919;-73
2023/06/05 12:57:01;;;;;;;;;;;23.30;87.40;;;;;;5091671;28;19947;-73
2023/06/05 12:59:26;;;;;;;;;;;23.50;86.40;;;;;;5092947;28;20298;-73
2023/06/05 13:01:52;;;;;;;;;;;23.50;87.60;;;;;;5099453;28;19943;-73
2023/06/05 13:04:17;;;;;;;;;;;23.50;85.90;;;;;;5102729;28;19927;-73
2023/06/05 13:06:43;;;;;;;;;;;23.50;86.80;;;;;;5095805;28;19974;-73
2023/06/05 13:09:09;;;;;;;;;;;23.50;86.40;;;;;;5092599;28;19924;-73
2023/06/05 13:11:35;;;;;;;;;;;23.50;84.80;;;;;;5099132;28;19920;-74
2023/06/05 13:14:01;;;;;;;;;;;23.50;84.90;;;;;;5110454;28;20345;-73
2023/06/05 13:16:26;;;;;;;;;;;23.50;85.30;;;;;;5102112;28;19932;-73
2023/06/05 13:18:52;;;;;;;;;;;23.60;85.30;;;;;;5095371;28;19935;-70
2023/06/05 13:21:18;;;;;;;;;;;23.70;86.40;;;;;;5096441;28;19919;-72
2023/06/05 13:23:43;;;;;;;;;;;23.90;84.40;;;;;;5111014;28;19927;-72
2023/06/05 13:26:09;;;;;;;;;;;24.10;83.10;;;;;;5099094;28;20349;-73
2023/06/05 13:28:34;;;;;;;;;;;23.90;82.30;;;;;;5082332;28;20370;-72
2023/06/05 13:31:01;;;;;;;;;;;23.80;83.90;;;;;;5080092;28;19920;-72
2023/06/05 13:33:27;;;;;;;;;;;23.90;84.00;;;;;;5091312;28;19923;-73
2023/06/05 13:35:53;;;;;;;;;;;24.10;83.70;;;;;;5077440;28;19982;-73
2023/06/05 13:38:19;;;;;;;;;;;24.10;82.00;;;;;;5080782;28;20002;-73
2023/06/05 13:40:48;;;;;;;;;;;24.00;81.70;;;;;;5078793;28;19927;-73
2023/06/05 13:43:14;;;;;;;;;;;23.90;80.40;;;;;;5087681;28;19973;-72
2023/06/05 13:45:40;;;;;;;;;;;23.90;81.20;;;;;;5103333;28;19920;-73
2023/06/05 13:48:05;;;;;;;;;;;24.00;82.70;;;;;;5099559;28;19985;-73
2023/06/05 13:50:31;;;;;;;;;;;24.10;80.80;;;;;;5093001;28;19927;-73
2023/06/05 13:52:56;;;;;;;;;;;24.30;80.40;;;;;;5098050;28;19962;-73
2023/06/05 13:55:22;;;;;;;;;;;24.30;80.40;;;;;;5101337;28;19928;-73
2023/06/05 13:57:47;;;;;;;;;;;24.40;80.00;;;;;;5099579;28;19920;-72
2023/06/05 14:00:15;;;;;;;;;;;24.20;78.80;;;;;;5091362;28;20394;-73
2023/06/05 14:02:41;;;;;;;;;;;24.10;80.10;;;;;;5109366;28;19927;-73
2023/06/05 14:05:07;;;;;;;;;;;24.10;79.20;;;;;;5110055;28;19920;-73
2023/06/05 14:07:33;;;;;;;;;;;24.10;79.10;;;;;;5092023;28;19923;-73
2023/06/05 14:09:59;;;;;;;;;;;24.20;79.00;;;;;;5107384;28;20386;-73